Flight Track Log - Related Links

Times and Time Zones

All times are in EST time to prevent confusion due to time zone crossing. See the WIG7412 flight status page for this flight to view local times or setup timezone preferences in your user account.

Time Position Orientation Groundspeed Altitude Reporting Facility
EST Latitude Longitude Course Direction KTS MPH feet Rate Location/Type
Tue 07:07:00 PM 43.3490 -73.1497 218° Southwest  Level Estimated
Tue 07:08:00 PM 43.3178 -73.1812 216° Southwest  Level FlightAware Approximate
Tue 07:09:00 PM 43.2866 -73.2127 216° Southwest  Level FlightAware Approximate
Tue 07:10:00 PM 43.2554 -73.2441 216° Southwest  Level FlightAware Approximate
Tue 07:11:00 PM 43.2254 -73.2775 228° Southwest  Level Estimated
Tue 07:12:00 PM 43.1948 -73.3101 218° Southwest  Level FlightAware Approximate
Tue 07:13:00 PM 43.1648 -73.3435 216° Southwest  Level Estimated
Tue 07:14:00 PM 43.1340 -73.3755 217° Southwest  Level FlightAware Approximate
Tue 07:15:00 PM 43.1040 -73.4090 216° Southwest  Level Estimated
Tue 07:16:00 PM 43.0730 -73.4406 217° Southwest  Level FlightAware Approximate
Tue 07:17:00 PM 43.0431 -73.4742 216° Southwest  Level Estimated
Tue 07:18:00 PM 43.0119 -73.5055 216° Southwest  Level FlightAware Approximate
Tue 07:19:00 PM 42.9807 -73.5367 216° Southwest  Level FlightAware Approximate
Tue 07:20:00 PM 42.9511 -73.5707 224° Southwest  Level Estimated
Tue 07:21:00 PM 42.9215 -73.6048 224° Southwest  Level Estimated
Tue 07:22:00 PM 42.8919 -73.6387 224° Southwest  Level Estimated
Tue 07:23:00 PM 42.8623 -73.6727 224° Southwest  Level Estimated
Tue 07:24:00 PM 42.8326 -73.7066 224° Southwest  Level Estimated
Tue 07:25:00 PM 42.8030 -73.7405 224° Southwest  Level Estimated
Tue 07:26:00 PM 42.7734 -73.7743 224° Southwest  Level Estimated
Tue 07:27:00 PM 42.7491 -73.8020 224° Southwest  Level Estimated
Tue 07:28:00 PM 42.7491 -73.8020 224° Southwest  Level Estimated
Tue 07:29:00 PM 42.7491 -73.8020 224° Southwest  Level Estimated
Tue 07:30:00 PM 42.7491 -73.8020 224° Southwest  Level Estimated
Tue 07:31:00 PM 42.7491 -73.8020 224° Southwest  Level Estimated
Tue 07:32:00 PM 42.7491 -73.8020 224° Southwest  Level Estimated
Tue 07:33:00 PM 42.7491 -73.8020 224° Southwest  Level Estimated
Tue 07:34:00 PM 42.7491 -73.8020 224° Southwest  Level Estimated
Tue 07:35:00 PM 42.7491 -73.8020 224° Southwest  Level Estimated
Tue 07:36:00 PM 42.7491 -73.8020 224° Southwest  Level Estimated
Tue 07:37:00 PM 42.7491 -73.8020 224° Southwest  Level Estimated
Tue 07:38:00 PM 42.7491 -73.8020 224° Southwest  Level Estimated
Tue 07:39:00 PM 42.7491 -73.8020 224° Southwest  Level Estimated
Tue 07:40:00 PM 42.7491 -73.8020 224° Southwest  Level Estimated

Login

Don't have an account? Register now (free) for customized features, flight alerts, and more!